METAR AND TAF INFORMATION
METAR FOR EGKB
ADDS - METARS form results

(2211 UTC 20 February 2020)
Data provider http://aviationweather.gov/metar/data/
 
METAR text: EGKB 202150Z 25012G22KT 210V290 CAVOK 03/M01 Q1020
Conditions at: EGKB (BIGGIN HILL , GB) observed 2150 UTC 20 February 2020
Temperature: 3.0°C (37°F)
Dewpoint: -1.0°C (30°F) [RH = 75%]
Pressure (altimeter): 30.12 inches Hg (1020.0 mb)
Winds: from the WSW (250 degrees) at 14 MPH (12 knots; 6.2 m/s)
gusting to 25 MPH (22 knots; 11.3 m/s)
Visibility: 6 or more miles (10+ km)
Ceiling: ceiling and visibility are OK
Clouds: unknown
Weather: no significant weather observed at this time

METAR text: EGKB 202120Z 25011KT 210V270 CAVOK 03/M01 Q1020
Conditions at: EGKB (BIGGIN HILL , GB) observed 2120 UTC 20 February 2020
Temperature: 3.0°C (37°F)
Dewpoint: -1.0°C (30°F) [RH = 75%]
Pressure (altimeter): 30.12 inches Hg (1020.0 mb)
Winds: from the WSW (250 degrees) at 13 MPH (11 knots; 5.7 m/s)
Visibility: 6 or more miles (10+ km)
Ceiling: ceiling and visibility are OK
Clouds: unknown
Weather: no significant weather observed at this time

Forecast for: EGKB (BIGGIN HILL , GB)
Text: TAF EGKB 201958Z 2021/2023 26010KT CAVOK
Forecast period: 2100 to 2300 UTC 20 February 2020
Forecast type: FROM: standard forecast or significant change
Winds: from the W (260 degrees) at 12 MPH (10 knots; 5.1 m/s)
Visibility: 6 or more miles 10+ km)
Ceiling: unknown
Clouds: missing
Weather: NSW  (no significant weather)

 AIRPORT MAP

 RUNWAY INFORMATION
Runway 03 Runway length 5912 ft Runway width 148 ft
Runway elevation 577 ft Runway displaced threshold 790 ft Runway heading 26
Runway 21 Runway length 5912 ft Runway width 148 ft
Runway elevation 517 ft Runway displaced threshold 0 ft Runway heading 206
Runway 11 Runway length 2598 ft Runway width 59 ft
Runway elevation 586 ft Runway displaced threshold 0 ft Runway heading 105
Runway 29 Runway length 2598 ft Runway width 59 ft
Runway elevation 598 ft Runway displaced threshold 0 ft Runway heading 285

 AIRPORT FREQUENCIES
Type APP Name APP Frequency 129.4 MHZ
Type ATIS Name ATIS Frequency 135.675 MHZ
Type RDR Name THAMES RDR Frequency 132.7 MHZ
Type TWR Name TWR Frequency 134.8 MHZ

 AIRPORT NEAR NAVIGATION AIDS
Type VOR-DME Name Biggin Frequency 115100 KHZ



Powered by Virtual Airlines Manager [v2.6.2]